Etusivu
METAR-TAF:

METAR-TAF

Lentoasemat :

Lanzaroten lentoasema

Lanzarote, Espanja

Leveyspiiri: 28-57N, Pituuspiiri: 013-36W, korkeus merenpinnasta: 14 m

Tämänhetkinen sää

Tämä raportti tehtiin 44 minuuttia sitten, kello 10.00 UTC
Tuuli 18 kn koillisesta
Lämpötila 20°C
Kosteus 53%
Ilmanpaine 1023 hPa
Näkyvyys 10 km tai enemmän
Muutamia pilviä 2500 ft:n korkeudessa
Hajonneita pilviä 4000 ft:n korkeudessa

METAR: GCRR 291000Z 04018KT 9999 FEW025 BKN040 20/10 Q1023

Aika: 10:44 (10:44 UTC)

Sääennuste

Tämä raportti tehtiin 2 tuntia ja 44 minuuttia sitten, kello 08.00 UTC
Ennuste voimassa 29. päivästä klo 09 UTC - 01. päivään klo 09 UTC
Tuuli 15 kn koillisesta
Näkyvyys 10 km tai enemmän
Muutamia pilviä 3000 ft:n korkeudessa
Todennäköisyys 30% :
Ajoittain
29. päivästä klo 10 UTC - 29. päivään klo 19 UTC
Tuuli 18 kn koillisesta puuskistuen 28 kn:hen

TAF: GCRR 290800Z 2909/0109 04015KT 9999 FEW030 TX24/2914Z TN15/0106Z PROB30 TEMPO 2910/2919 04018G28KT

Säähavainnot ja -ennusteet yli 4000 lentoasemalta (METAR- ja TAF-raportit).

Käytössä olevat sääasemat on merkitty karttaan keltaisilla ja punaisilla pisteillä.

Aseta hiiri pisteen päälle nähdäksesi sääaseman nimen.

Klikkaa sitten nähdäksesi säähavainnot ja -ennusteet.

Kartan vaihtaminen: klikkaa mustalla rastilla varustettuja vihreitä pisteitä, niin voit zoomata sisään; viivalla varustettua vihreää pistettä, niin voit zoomata ulos tai vihreitä nuolia, niin pääset viereisille kartoille.


METAR-TAF: